sensor_id;sensor_type;location;lat;lon;timestamp;pressure;altitude;pressure_sealevel;temperature;humidity
64192;BME280;50497;50.720;-2.084;2023-08-24T00:01:06;102066.03;;;15.97;100.00
64192;BME280;50497;50.720;-2.084;2023-08-24T00:03:32;102057.94;;;15.97;100.00
64192;BME280;50497;50.720;-2.084;2023-08-24T00:05:58;102049.44;;;16.05;100.00
64192;BME280;50497;50.720;-2.084;2023-08-24T00:08:23;102032.16;;;15.90;100.00
64192;BME280;50497;50.720;-2.084;2023-08-24T00:10:49;102034.06;;;16.07;100.00
64192;BME280;50497;50.720;-2.084;2023-08-24T00:13:14;102029.94;;;16.17;100.00
64192;BME280;50497;50.720;-2.084;2023-08-24T00:15:41;102032.16;;;16.26;100.00
64192;BME280;50497;50.720;-2.084;2023-08-24T00:18:06;102019.38;;;16.30;100.00
64192;BME280;50497;50.720;-2.084;2023-08-24T00:20:33;102013.19;;;16.28;100.00
64192;BME280;50497;50.720;-2.084;2023-08-24T00:22:59;102009.38;;;16.32;100.00
64192;BME280;50497;50.720;-2.084;2023-08-24T00:25:24;102010.31;;;16.31;100.00
64192;BME280;50497;50.720;-2.084;2023-08-24T00:27:50;101996.81;;;16.31;100.00
64192;BME280;50497;50.720;-2.084;2023-08-24T00:30:16;101952.16;;;16.06;100.00
64192;BME280;50497;50.720;-2.084;2023-08-24T00:32:41;101971.00;;;16.25;100.00
64192;BME280;50497;50.720;-2.084;2023-08-24T00:35:08;101961.00;;;16.28;100.00
64192;BME280;50497;50.720;-2.084;2023-08-24T00:37:35;101962.03;;;16.25;100.00
64192;BME280;50497;50.720;-2.084;2023-08-24T00:40:01;101945.25;;;16.18;100.00
64192;BME280;50497;50.720;-2.084;2023-08-24T00:42:30;101913.75;;;16.19;100.00
64192;BME280;50497;50.720;-2.084;2023-08-24T00:44:57;101913.88;;;16.33;100.00
64192;BME280;50497;50.720;-2.084;2023-08-24T00:47:22;101917.63;;;16.31;100.00
64192;BME280;50497;50.720;-2.084;2023-08-24T00:49:47;101911.72;;;16.40;100.00
64192;BME280;50497;50.720;-2.084;2023-08-24T00:52:13;101896.09;;;16.29;100.00
64192;BME280;50497;50.720;-2.084;2023-08-24T00:54:39;101880.88;;;16.11;100.00
64192;BME280;50497;50.720;-2.084;2023-08-24T00:57:05;101872.44;;;16.17;100.00
64192;BME280;50497;50.720;-2.084;2023-08-24T00:59:32;101855.06;;;16.22;100.00
64192;BME280;50497;50.720;-2.084;2023-08-24T01:01:58;101867.81;;;16.36;100.00
64192;BME280;50497;50.720;-2.084;2023-08-24T01:04:24;101852.03;;;16.29;100.00
64192;BME280;50497;50.720;-2.084;2023-08-24T01:06:50;101858.06;;;16.34;100.00
64192;BME280;50497;50.720;-2.084;2023-08-24T01:09:16;101865.19;;;16.35;100.00
64192;BME280;50497;50.720;-2.084;2023-08-24T01:17:05;101897.59;;;16.35;100.00
64192;BME280;50497;50.720;-2.084;2023-08-24T01:19:44;101891.88;;;16.41;100.00
64192;BME280;50497;50.720;-2.084;2023-08-24T01:22:32;101904.25;;;16.45;100.00
64192;BME280;50497;50.720;-2.084;2023-08-24T01:25:52;101901.47;;;16.47;100.00
64192;BME280;50497;50.720;-2.084;2023-08-24T01:28:11;101930.06;;;16.51;100.00
64192;BME280;50497;50.720;-2.084;2023-08-24T01:30:38;101927.28;;;16.52;100.00
64192;BME280;50497;50.720;-2.084;2023-08-24T01:33:04;101914.03;;;16.48;100.00
64192;BME280;50497;50.720;-2.084;2023-08-24T01:35:37;101907.06;;;16.43;100.00
64192;BME280;50497;50.720;-2.084;2023-08-24T01:38:03;101890.50;;;16.50;100.00
64192;BME280;50497;50.720;-2.084;2023-08-24T01:41:09;101888.56;;;16.36;100.00
64192;BME280;50497;50.720;-2.084;2023-08-24T01:43:39;101919.84;;;16.40;100.00
64192;BME280;50497;50.720;-2.084;2023-08-24T01:46:05;101921.66;;;16.39;100.00
64192;BME280;50497;50.720;-2.084;2023-08-24T01:48:32;101912.28;;;16.47;100.00
64192;BME280;50497;50.720;-2.084;2023-08-24T01:50:59;101881.41;;;16.35;100.00
64192;BME280;50497;50.720;-2.084;2023-08-24T01:53:26;101885.16;;;16.32;100.00
64192;BME280;50497;50.720;-2.084;2023-08-24T01:55:52;101883.47;;;16.30;100.00
64192;BME280;50497;50.720;-2.084;2023-08-24T01:58:18;101880.44;;;16.36;100.00
64192;BME280;50497;50.720;-2.084;2023-08-24T02:00:44;101888.78;;;16.49;100.00
64192;BME280;50497;50.720;-2.084;2023-08-24T02:03:09;101894.19;;;16.49;100.00
64192;BME280;50497;50.720;-2.084;2023-08-24T02:05:34;101874.00;;;16.38;100.00
64192;BME280;50497;50.720;-2.084;2023-08-24T02:08:00;101881.78;;;16.44;100.00
64192;BME280;50497;50.720;-2.084;2023-08-24T02:10:25;101859.69;;;16.36;100.00
64192;BME280;50497;50.720;-2.084;2023-08-24T02:12:51;101885.00;;;16.35;100.00
64192;BME280;50497;50.720;-2.084;2023-08-24T02:15:17;101885.78;;;16.37;100.00
64192;BME280;50497;50.720;-2.084;2023-08-24T02:17:42;101888.78;;;16.49;100.00
64192;BME280;50497;50.720;-2.084;2023-08-24T02:20:09;101869.41;;;16.40;100.00
64192;BME280;50497;50.720;-2.084;2023-08-24T02:22:34;101861.22;;;16.42;100.00
64192;BME280;50497;50.720;-2.084;2023-08-24T02:25:00;101845.03;;;16.42;100.00
64192;BME280;50497;50.720;-2.084;2023-08-24T02:27:26;101849.53;;;16.41;100.00
64192;BME280;50497;50.720;-2.084;2023-08-24T02:29:51;101856.53;;;16.46;100.00
64192;BME280;50497;50.720;-2.084;2023-08-24T02:32:17;101861.03;;;16.45;100.00
64192;BME280;50497;50.720;-2.084;2023-08-24T02:34:42;101863.19;;;16.38;100.00
64192;BME280;50497;50.720;-2.084;2023-08-24T02:37:08;101880.53;;;16.34;100.00
64192;BME280;50497;50.720;-2.084;2023-08-24T02:39:33;101904.91;;;16.50;100.00
64192;BME280;50497;50.720;-2.084;2023-08-24T02:42:00;101894.97;;;16.51;100.00
64192;BME280;50497;50.720;-2.084;2023-08-24T02:44:26;101881.63;;;16.48;100.00
64192;BME280;50497;50.720;-2.084;2023-08-24T02:46:51;101875.50;;;16.44;100.00
64192;BME280;50497;50.720;-2.084;2023-08-24T02:49:17;101843.97;;;16.44;100.00
64192;BME280;50497;50.720;-2.084;2023-08-24T02:51:43;101825.16;;;16.59;100.00
64192;BME280;50497;50.720;-2.084;2023-08-24T02:54:08;101819.00;;;16.57;100.00
64192;BME280;50497;50.720;-2.084;2023-08-24T02:56:34;101821.41;;;16.46;100.00
64192;BME280;50497;50.720;-2.084;2023-08-24T02:58:59;101854.59;;;16.48;100.00
64192;BME280;50497;50.720;-2.084;2023-08-24T03:01:24;101847.91;;;16.55;100.00
64192;BME280;50497;50.720;-2.084;2023-08-24T03:03:50;101843.56;;;16.52;100.00
64192;BME280;50497;50.720;-2.084;2023-08-24T03:06:15;101823.72;;;16.36;100.00
64192;BME280;50497;50.720;-2.084;2023-08-24T03:08:41;101818.16;;;16.39;100.00
64192;BME280;50497;50.720;-2.084;2023-08-24T03:11:06;101792.03;;;16.39;100.00
64192;BME280;50497;50.720;-2.084;2023-08-24T03:13:32;101761.16;;;16.28;100.00
64192;BME280;50497;50.720;-2.084;2023-08-24T03:15:57;101753.75;;;16.31;100.00
64192;BME280;50497;50.720;-2.084;2023-08-24T03:18:22;101760.91;;;16.32;100.00
64192;BME280;50497;50.720;-2.084;2023-08-24T03:20:48;101756.13;;;16.37;100.00
64192;BME280;50497;50.720;-2.084;2023-08-24T03:23:15;101767.25;;;16.31;100.00
64192;BME280;50497;50.720;-2.084;2023-08-24T03:25:41;101794.63;;;16.41;100.00
64192;BME280;50497;50.720;-2.084;2023-08-24T03:28:07;101810.75;;;16.42;100.00
64192;BME280;50497;50.720;-2.084;2023-08-24T03:30:35;101826.03;;;16.43;100.00
64192;BME280;50497;50.720;-2.084;2023-08-24T03:33:00;101842.41;;;16.40;100.00
64192;BME280;50497;50.720;-2.084;2023-08-24T03:35:27;101849.53;;;16.41;100.00
64192;BME280;50497;50.720;-2.084;2023-08-24T03:37:52;101844.47;;;16.35;100.00
64192;BME280;50497;50.720;-2.084;2023-08-24T03:40:17;101842.72;;;16.34;100.00
64192;BME280;50497;50.720;-2.084;2023-08-24T03:42:43;101832.59;;;16.22;100.00
64192;BME280;50497;50.720;-2.084;2023-08-24T03:45:08;101843.94;;;16.29;100.00
64192;BME280;50497;50.720;-2.084;2023-08-24T03:47:34;101853.38;;;16.37;100.00
64192;BME280;50497;50.720;-2.084;2023-08-24T03:49:59;101861.22;;;16.42;100.00
64192;BME280;50497;50.720;-2.084;2023-08-24T03:52:25;101877.03;;;16.32;100.00
64192;BME280;50497;50.720;-2.084;2023-08-24T03:54:50;101890.03;;;16.41;100.00
64192;BME280;50497;50.720;-2.084;2023-08-24T03:57:15;101887.97;;;16.47;100.00
64192;BME280;50497;50.720;-2.084;2023-08-24T03:59:41;101868.44;;;16.41;100.00
64192;BME280;50497;50.720;-2.084;2023-08-24T04:02:07;101858.00;;;16.51;100.00
64192;BME280;50497;50.720;-2.084;2023-08-24T04:04:32;101829.84;;;16.39;100.00
64192;BME280;50497;50.720;-2.084;2023-08-24T04:06:58;101829.97;;;16.54;100.00
64192;BME280;50497;50.720;-2.084;2023-08-24T04:09:23;101838.22;;;16.51;100.00
64192;BME280;50497;50.720;-2.084;2023-08-24T04:11:49;101863.72;;;16.45;100.00
64192;BME280;50497;50.720;-2.084;2023-08-24T04:14:14;101855.81;;;16.42;100.00
64192;BME280;50497;50.720;-2.084;2023-08-24T04:16:39;101852.47;;;16.37;100.00
64192;BME280;50497;50.720;-2.084;2023-08-24T04:19:05;101856.16;;;16.36;100.00
64192;BME280;50497;50.720;-2.084;2023-08-24T04:21:30;101844.63;;;16.32;100.00
64192;BME280;50497;50.720;-2.084;2023-08-24T04:23:55;101849.88;;;16.35;100.00
64192;BME280;50497;50.720;-2.084;2023-08-24T04:26:21;101855.28;;;16.35;100.00
64192;BME280;50497;50.720;-2.084;2023-08-24T04:28:46;101882.09;;;16.38;100.00
64192;BME280;50497;50.720;-2.084;2023-08-24T04:31:11;101889.19;;;16.41;100.00
64192;BME280;50497;50.720;-2.084;2023-08-24T04:33:37;101904.06;;;16.32;100.00
64192;BME280;50497;50.720;-2.084;2023-08-24T04:36:02;101929.78;;;16.39;100.00
64192;BME280;50497;50.720;-2.084;2023-08-24T04:38:31;101914.31;;;16.25;100.00
64192;BME280;50497;50.720;-2.084;2023-08-24T04:40:56;101958.38;;;16.43;100.00
64192;BME280;50497;50.720;-2.084;2023-08-24T04:43:23;101980.06;;;16.42;100.00
64192;BME280;50497;50.720;-2.084;2023-08-24T04:45:50;101983.09;;;16.36;100.00
64192;BME280;50497;50.720;-2.084;2023-08-24T04:48:19;101980.16;;;16.40;100.00
64192;BME280;50497;50.720;-2.084;2023-08-24T04:50:45;101970.22;;;16.41;100.00
64192;BME280;50497;50.720;-2.084;2023-08-24T04:53:15;101958.00;;;16.34;100.00
64192;BME280;50497;50.720;-2.084;2023-08-24T04:55:41;101973.22;;;16.35;100.00
64192;BME280;50497;50.720;-2.084;2023-08-24T04:58:07;101963.63;;;16.29;100.00
64192;BME280;50497;50.720;-2.084;2023-08-24T05:00:34;101971.25;;;16.21;100.00
64192;BME280;50497;50.720;-2.084;2023-08-24T05:03:00;101960.38;;;16.22;100.00
64192;BME280;50497;50.720;-2.084;2023-08-24T05:05:28;101947.88;;;16.20;100.00
64192;BME280;50497;50.720;-2.084;2023-08-24T05:07:54;101957.56;;;16.06;100.00
64192;BME280;50497;50.720;-2.084;2023-08-24T05:10:20;101992.13;;;16.17;100.00
64192;BME280;50497;50.720;-2.084;2023-08-24T05:12:45;102017.16;;;16.21;100.00
64192;BME280;50497;50.720;-2.084;2023-08-24T05:15:10;102019.38;;;16.13;100.00
64192;BME280;50497;50.720;-2.084;2023-08-24T05:17:36;102001.81;;;16.04;100.00
64192;BME280;50497;50.720;-2.084;2023-08-24T05:20:01;101995.69;;;16.00;100.00
64192;BME280;50497;50.720;-2.084;2023-08-24T05:22:27;102017.44;;;15.97;100.00
64192;BME280;50497;50.720;-2.084;2023-08-24T05:24:52;102032.09;;;15.92;100.00
64192;BME280;50497;50.720;-2.084;2023-08-24T05:27:18;102069.38;;;16.02;100.00
64192;BME280;50497;50.720;-2.084;2023-08-24T05:29:43;102075.41;;;16.07;100.00
64192;BME280;50497;50.720;-2.084;2023-08-24T05:32:08;102103.69;;;16.00;100.00
64192;BME280;50497;50.720;-2.084;2023-08-24T05:34:34;102104.75;;;15.96;100.00
64192;BME280;50497;50.720;-2.084;2023-08-24T05:36:59;102086.72;;;15.97;100.00
64192;BME280;50497;50.720;-2.084;2023-08-24T05:39:25;102087.63;;;15.97;100.00
64192;BME280;50497;50.720;-2.084;2023-08-24T05:41:53;102125.41;;;15.97;100.00
64192;BME280;50497;50.720;-2.084;2023-08-24T05:44:19;102134.16;;;16.02;100.00
64192;BME280;50497;50.720;-2.084;2023-08-24T05:46:45;102144.00;;;16.03;100.00
64192;BME280;50497;50.720;-2.084;2023-08-24T05:49:11;102161.00;;;16.05;100.00
64192;BME280;50497;50.720;-2.084;2023-08-24T05:51:37;102150.28;;;16.04;100.00
64192;BME280;50497;50.720;-2.084;2023-08-24T05:54:02;102140.50;;;16.01;100.00
64192;BME280;50497;50.720;-2.084;2023-08-24T05:56:27;102126.06;;;16.02;100.00
64192;BME280;50497;50.720;-2.084;2023-08-24T05:58:54;102126.19;;;16.18;100.00
64192;BME280;50497;50.720;-2.084;2023-08-24T06:01:19;102128.22;;;16.13;100.00
64192;BME280;50497;50.720;-2.084;2023-08-24T06:03:45;102130.50;;;16.22;100.00
64192;BME280;50497;50.720;-2.084;2023-08-24T06:06:11;102094.75;;;16.17;100.00
64192;BME280;50497;50.720;-2.084;2023-08-24T06:08:36;102079.81;;;16.28;100.00
64192;BME280;50497;50.720;-2.084;2023-08-24T06:11:01;102075.50;;;16.23;100.00
64192;BME280;50497;50.720;-2.084;2023-08-24T06:13:27;102076.19;;;16.29;100.00
64192;BME280;50497;50.720;-2.084;2023-08-24T06:15:52;102064.47;;;16.28;100.00
64192;BME280;50497;50.720;-2.084;2023-08-24T06:18:18;102046.22;;;16.16;100.00
64192;BME280;50497;50.720;-2.084;2023-08-24T06:20:43;102050.41;;;16.21;100.00
64192;BME280;50497;50.720;-2.084;2023-08-24T06:23:08;102051.63;;;16.33;100.00
64192;BME280;50497;50.720;-2.084;2023-08-24T06:25:35;102018.75;;;16.42;100.00
64192;BME280;50497;50.720;-2.084;2023-08-24T06:28:00;101980.06;;;16.42;100.00
64192;BME280;50497;50.720;-2.084;2023-08-24T06:30:28;101923.34;;;16.24;100.00
64192;BME280;50497;50.720;-2.084;2023-08-24T06:32:54;101912.22;;;16.31;100.00
64192;BME280;50497;50.720;-2.084;2023-08-24T06:35:19;101920.56;;;16.26;100.00
64192;BME280;50497;50.720;-2.084;2023-08-24T06:37:44;101946.91;;;16.38;100.00
64192;BME280;50497;50.720;-2.084;2023-08-24T06:40:10;101926.44;;;16.34;100.00
64192;BME280;50497;50.720;-2.084;2023-08-24T06:42:36;101931.53;;;16.40;100.00
64192;BME280;50497;50.720;-2.084;2023-08-24T06:45:02;101917.41;;;16.35;100.00
64192;BME280;50497;50.720;-2.084;2023-08-24T06:47:27;101931.03;;;16.50;100.00
64192;BME280;50497;50.720;-2.084;2023-08-24T06:49:52;101927.69;;;16.62;100.00
64192;BME280;50497;50.720;-2.084;2023-08-24T06:52:18;101908.69;;;16.63;100.00
64192;BME280;50497;50.720;-2.084;2023-08-24T06:54:44;101866.91;;;16.87;100.00
64192;BME280;50497;50.720;-2.084;2023-08-24T06:57:09;101843.84;;;16.79;100.00
64192;BME280;50497;50.720;-2.084;2023-08-24T06:59:34;101841.91;;;16.81;100.00
64192;BME280;50497;50.720;-2.084;2023-08-24T07:02:00;101847.19;;;16.85;100.00
64192;BME280;50497;50.720;-2.084;2023-08-24T07:04:26;101837.06;;;17.04;100.00
64192;BME280;50497;50.720;-2.084;2023-08-24T07:06:52;101781.81;;;16.94;100.00
64192;BME280;50497;50.720;-2.084;2023-08-24T07:09:18;101774.38;;;16.97;100.00
64192;BME280;50497;50.720;-2.084;2023-08-24T07:11:43;101734.25;;;17.06;100.00
64192;BME280;50497;50.720;-2.084;2023-08-24T07:14:09;101734.44;;;17.03;100.00
64192;BME280;50497;50.720;-2.084;2023-08-24T07:16:34;101760.25;;;17.08;100.00
64192;BME280;50497;50.720;-2.084;2023-08-24T07:18:59;101788.06;;;17.10;100.00
64192;BME280;50497;50.720;-2.084;2023-08-24T07:21:25;101776.16;;;17.29;100.00
64192;BME280;50497;50.720;-2.084;2023-08-24T07:23:50;101746.22;;;17.32;100.00
64192;BME280;50497;50.720;-2.084;2023-08-24T07:26:16;101736.63;;;17.26;100.00
64192;BME280;50497;50.720;-2.084;2023-08-24T07:28:41;101709.53;;;17.42;100.00
64192;BME280;50497;50.720;-2.084;2023-08-24T07:31:09;101673.50;;;17.42;100.00
64192;BME280;50497;50.720;-2.084;2023-08-24T07:33:36;101658.25;;;17.55;100.00
64192;BME280;50497;50.720;-2.084;2023-08-24T07:36:03;101622.91;;;17.58;100.00
64192;BME280;50497;50.720;-2.084;2023-08-24T07:38:29;101603.53;;;17.64;100.00
64192;BME280;50497;50.720;-2.084;2023-08-24T07:40:54;101593.78;;;17.90;100.00
64192;BME280;50497;50.720;-2.084;2023-08-24T07:43:20;101605.94;;;17.98;100.00
64192;BME280;50497;50.720;-2.084;2023-08-24T07:45:45;101592.19;;;18.15;100.00
64192;BME280;50497;50.720;-2.084;2023-08-24T07:48:10;101571.09;;;18.20;100.00
64192;BME280;50497;50.720;-2.084;2023-08-24T07:50:36;101554.28;;;18.15;100.00
64192;BME280;50497;50.720;-2.084;2023-08-24T07:53:01;101540.78;;;18.28;100.00
64192;BME280;50497;50.720;-2.084;2023-08-24T07:55:26;101546.59;;;18.22;100.00
64192;BME280;50497;50.720;-2.084;2023-08-24T07:57:52;101563.56;;;18.11;100.00
64192;BME280;50497;50.720;-2.084;2023-08-24T08:00:17;101592.78;;;18.06;100.00
64192;BME280;50497;50.720;-2.084;2023-08-24T08:02:43;101601.25;;;17.87;100.00
64192;BME280;50497;50.720;-2.084;2023-08-24T08:05:08;101632.06;;;17.99;100.00
64192;BME280;50497;50.720;-2.084;2023-08-24T08:07:35;101666.41;;;17.98;100.00
64192;BME280;50497;50.720;-2.084;2023-08-24T08:10:01;101683.31;;;18.02;100.00
64192;BME280;50497;50.720;-2.084;2023-08-24T08:12:26;101687.41;;;17.95;100.00
64192;BME280;50497;50.720;-2.084;2023-08-24T08:14:52;101697.72;;;18.02;100.00
64192;BME280;50497;50.720;-2.084;2023-08-24T08:17:17;101672.19;;;18.06;100.00
64192;BME280;50497;50.720;-2.084;2023-08-24T08:19:42;101675.09;;;18.03;100.00
64192;BME280;50497;50.720;-2.084;2023-08-24T08:22:08;101663.22;;;17.91;100.00
64192;BME280;50497;50.720;-2.084;2023-08-24T08:24:33;101641.53;;;18.06;100.00
64192;BME280;50497;50.720;-2.084;2023-08-24T08:26:59;101659.81;;;18.17;100.00
64192;BME280;50497;50.720;-2.084;2023-08-24T08:29:25;101658.41;;;18.38;100.00
64192;BME280;50497;50.720;-2.084;2023-08-24T08:31:50;101641.41;;;18.49;100.00
64192;BME280;50497;50.720;-2.084;2023-08-24T08:34:15;101632.47;;;18.34;100.00
64192;BME280;50497;50.720;-2.084;2023-08-24T08:36:41;101653.91;;;18.52;100.00
64192;BME280;50497;50.720;-2.084;2023-08-24T08:39:07;101681.53;;;18.71;100.00
64192;BME280;50497;50.720;-2.084;2023-08-24T08:41:38;101693.22;;;18.72;100.00
64192;BME280;50497;50.720;-2.084;2023-08-24T08:44:10;101692.88;;;18.91;100.00
64192;BME280;50497;50.720;-2.084;2023-08-24T08:46:38;101690.75;;;18.96;100.00
64192;BME280;50497;50.720;-2.084;2023-08-24T08:49:05;101700.00;;;19.19;100.00
64192;BME280;50497;50.720;-2.084;2023-08-24T08:51:32;101709.72;;;20.26;100.00
64192;BME280;50497;50.720;-2.084;2023-08-24T08:53:58;101741.53;;;21.46;100.00
64192;BME280;50497;50.720;-2.084;2023-08-24T08:56:23;101787.72;;;20.75;100.00
64192;BME280;50497;50.720;-2.084;2023-08-24T08:58:49;101814.28;;;20.96;100.00
64192;BME280;50497;50.720;-2.084;2023-08-24T09:01:15;101806.25;;;20.94;100.00
64192;BME280;50497;50.720;-2.084;2023-08-24T09:03:42;101777.53;;;20.90;100.00
64192;BME280;50497;50.720;-2.084;2023-08-24T09:06:09;101780.56;;;21.58;100.00
64192;BME280;50497;50.720;-2.084;2023-08-24T09:08:34;101813.44;;;21.79;100.00
64192;BME280;50497;50.720;-2.084;2023-08-24T09:10:59;101831.31;;;21.94;100.00
64192;BME280;50497;50.720;-2.084;2023-08-24T09:13:25;101871.78;;;21.76;100.00
64192;BME280;50497;50.720;-2.084;2023-08-24T09:15:51;101829.00;;;21.17;100.00
64192;BME280;50497;50.720;-2.084;2023-08-24T09:18:19;101812.59;;;20.82;100.00
64192;BME280;50497;50.720;-2.084;2023-08-24T09:20:44;101801.84;;;20.55;100.00
64192;BME280;50497;50.720;-2.084;2023-08-24T09:23:18;101808.56;;;20.62;100.00
64192;BME280;50497;50.720;-2.084;2023-08-24T09:25:47;101796.75;;;20.63;100.00
64192;BME280;50497;50.720;-2.084;2023-08-24T09:28:13;101802.59;;;20.70;100.00
64192;BME280;50497;50.720;-2.084;2023-08-24T09:30:38;101790.44;;;20.75;100.00
64192;BME280;50497;50.720;-2.084;2023-08-24T09:33:09;101775.88;;;21.00;100.00
64192;BME280;50497;50.720;-2.084;2023-08-24T09:35:36;101773.25;;;20.99;100.00
64192;BME280;50497;50.720;-2.084;2023-08-24T09:38:22;101797.41;;;21.99;100.00
64192;BME280;50497;50.720;-2.084;2023-08-24T09:40:53;101807.19;;;23.68;100.00
64192;BME280;50497;50.720;-2.084;2023-08-24T09:43:18;101864.09;;;24.47;100.00
64192;BME280;50497;50.720;-2.084;2023-08-24T09:45:56;101908.06;;;23.92;100.00
64192;BME280;50497;50.720;-2.084;2023-08-24T09:48:23;101908.44;;;24.41;100.00
64192;BME280;50497;50.720;-2.084;2023-08-24T09:50:51;101903.38;;;25.29;100.00
64192;BME280;50497;50.720;-2.084;2023-08-24T09:53:17;101927.09;;;26.08;100.00
64192;BME280;50497;50.720;-2.084;2023-08-24T09:55:59;101770.16;;;25.57;100.00
64192;BME280;50497;50.720;-2.084;2023-08-24T09:58:25;101627.34;;;24.64;100.00
64192;BME280;50497;50.720;-2.084;2023-08-24T10:00:51;101693.31;;;23.89;100.00
64192;BME280;50497;50.720;-2.084;2023-08-24T10:03:21;101839.69;;;23.50;100.00
64192;BME280;50497;50.720;-2.084;2023-08-24T10:05:51;101863.72;;;23.01;100.00
64192;BME280;50497;50.720;-2.084;2023-08-24T10:08:20;101877.06;;;22.13;100.00
64192;BME280;50497;50.720;-2.084;2023-08-24T10:10:48;101885.88;;;22.17;100.00
64192;BME280;50497;50.720;-2.084;2023-08-24T10:13:23;101861.78;;;21.88;100.00
64192;BME280;50497;50.720;-2.084;2023-08-24T10:15:52;101902.22;;;22.17;100.00
64192;BME280;50497;50.720;-2.084;2023-08-24T10:18:19;101891.81;;;22.11;100.00
64192;BME280;50497;50.720;-2.084;2023-08-24T10:20:45;101867.25;;;21.64;100.00
64192;BME280;50497;50.720;-2.084;2023-08-24T10:23:14;101862.38;;;21.81;100.00
64192;BME280;50497;50.720;-2.084;2023-08-24T10:25:41;101852.94;;;21.73;100.00
64192;BME280;50497;50.720;-2.084;2023-08-24T10:28:07;101844.31;;;21.55;100.00
64192;BME280;50497;50.720;-2.084;2023-08-24T10:30:35;101834.75;;;21.26;100.00
64192;BME280;50497;50.720;-2.084;2023-08-24T10:33:01;101825.63;;;21.38;100.00
64192;BME280;50497;50.720;-2.084;2023-08-24T10:35:27;101828.44;;;21.49;100.00
64192;BME280;50497;50.720;-2.084;2023-08-24T10:37:53;101802.22;;;21.48;100.00
64192;BME280;50497;50.720;-2.084;2023-08-24T10:40:35;101785.94;;;21.35;100.00
64192;BME280;50497;50.720;-2.084;2023-08-24T10:43:04;101782.19;;;21.25;100.00
64192;BME280;50497;50.720;-2.084;2023-08-24T10:45:55;101779.84;;;21.32;100.00
64192;BME280;50497;50.720;-2.084;2023-08-24T10:48:25;101782.31;;;20.86;100.00
64192;BME280;50497;50.720;-2.084;2023-08-24T10:51:23;101787.88;;;20.85;100.00
64192;BME280;50497;50.720;-2.084;2023-08-24T10:53:56;101794.66;;;20.79;100.00
64192;BME280;50497;50.720;-2.084;2023-08-24T10:56:30;101781.38;;;20.62;100.00
64192;BME280;50497;50.720;-2.084;2023-08-24T10:59:12;101766.00;;;20.37;100.00
64192;BME280;50497;50.720;-2.084;2023-08-24T11:01:39;101745.91;;;20.39;100.00
64192;BME280;50497;50.720;-2.084;2023-08-24T11:04:05;101749.63;;;20.12;100.00
64192;BME280;50497;50.720;-2.084;2023-08-24T11:06:33;101791.34;;;19.99;100.00
64192;BME280;50497;50.720;-2.084;2023-08-24T11:09:05;101771.47;;;19.98;100.00
64192;BME280;50497;50.720;-2.084;2023-08-24T11:11:31;101753.66;;;19.81;100.00
64192;BME280;50497;50.720;-2.084;2023-08-24T11:16:48;101784.22;;;19.70;100.00
64192;BME280;50497;50.720;-2.084;2023-08-24T11:19:15;101765.56;;;19.66;100.00
64192;BME280;50497;50.720;-2.084;2023-08-24T11:21:44;101764.47;;;19.68;100.00
64192;BME280;50497;50.720;-2.084;2023-08-24T11:24:12;101782.09;;;19.75;100.00
64192;BME280;50497;50.720;-2.084;2023-08-24T11:26:43;101794.66;;;19.64;100.00
64192;BME280;50497;50.720;-2.084;2023-08-24T11:29:10;101781.19;;;19.49;100.00
64192;BME280;50497;50.720;-2.084;2023-08-24T11:31:36;101780.72;;;19.55;100.00
64192;BME280;50497;50.720;-2.084;2023-08-24T11:34:02;101762.50;;;19.45;100.00
64192;BME280;50497;50.720;-2.084;2023-08-24T11:36:29;101785.25;;;19.42;100.00
64192;BME280;50497;50.720;-2.084;2023-08-24T11:38:59;101795.22;;;19.29;100.00
64192;BME280;50497;50.720;-2.084;2023-08-24T11:41:25;101798.38;;;19.35;100.00
64192;BME280;50497;50.720;-2.084;2023-08-24T11:43:58;101789.06;;;19.39;100.00
64192;BME280;50497;50.720;-2.084;2023-08-24T11:46:23;101778.28;;;19.25;100.00
64192;BME280;50497;50.720;-2.084;2023-08-24T11:48:48;101777.00;;;19.04;100.00
64192;BME280;50497;50.720;-2.084;2023-08-24T11:51:14;101754.81;;;18.70;100.00
64192;BME280;50497;50.720;-2.084;2023-08-24T11:53:40;101780.25;;;18.81;100.00
64192;BME280;50497;50.720;-2.084;2023-08-24T11:56:10;101785.19;;;18.75;100.00
64192;BME280;50497;50.720;-2.084;2023-08-24T11:58:42;101785.97;;;18.62;100.00
64192;BME280;50497;50.720;-2.084;2023-08-24T12:01:09;101768.78;;;18.49;100.00
64192;BME280;50497;50.720;-2.084;2023-08-24T12:03:36;101772.06;;;18.54;100.00
64192;BME280;50497;50.720;-2.084;2023-08-24T12:06:10;101752.13;;;18.41;100.00
64192;BME280;50497;50.720;-2.084;2023-08-24T12:08:40;101778.19;;;18.43;100.00
64192;BME280;50497;50.720;-2.084;2023-08-24T12:11:19;101807.41;;;18.53;100.00
64192;BME280;50497;50.720;-2.084;2023-08-24T12:13:52;101826.25;;;18.54;100.00
64192;BME280;50497;50.720;-2.084;2023-08-24T12:16:22;101834.41;;;18.40;100.00
64192;BME280;50497;50.720;-2.084;2023-08-24T12:18:54;101861.81;;;18.50;100.00
64192;BME280;50497;50.720;-2.084;2023-08-24T12:21:23;101871.25;;;18.42;100.00
64192;BME280;50497;50.720;-2.084;2023-08-24T12:24:15;101878.16;;;18.48;100.00
64192;BME280;50497;50.720;-2.084;2023-08-24T12:26:41;101857.13;;;18.37;100.00
64192;BME280;50497;50.720;-2.084;2023-08-24T12:29:08;101902.53;;;18.62;100.00
64192;BME280;50497;50.720;-2.084;2023-08-24T12:31:34;101924.41;;;18.45;100.00
64192;BME280;50497;50.720;-2.084;2023-08-24T12:34:07;101918.69;;;18.64;100.00
64192;BME280;50497;50.720;-2.084;2023-08-24T12:36:36;101927.53;;;18.53;100.00
64192;BME280;50497;50.720;-2.084;2023-08-24T12:39:03;101955.00;;;18.76;100.00